Time;durP1;ratioP1;P1;durP2;ratioP2;P2;SDS_P1;SDS_P2;PMS_P1;PMS_P2;Temp;Humidity;BMP_temperature;BMP_pressure;BME280_temperature;BME280_humidity;BME280_pressure;Samples;Min_cycle;Max_cycle;Signal;HPM_P1;HPM_P2
2023/01/15 00:01:30;;;;;;;11.10;2.72;;;;;;;4.89;100.00;96704.28;4838027;29;20101;-82
2023/01/15 00:03:57;;;;;;;4.78;1.98;;;;;;;4.94;100.00;96699.22;4831833;29;20145;-82
2023/01/15 00:06:24;;;;;;;12.68;3.05;;;;;;;5.10;100.00;96684.84;4834257;29;20113;-82
2023/01/15 00:08:51;;;;;;;8.25;2.08;;;;;;;4.92;100.00;96703.84;4833960;29;20494;-82
2023/01/15 00:11:17;;;;;;;14.48;2.35;;;;;;;4.83;100.00;96679.94;4832300;29;20034;-84
2023/01/15 00:13:43;;;;;;;9.38;2.40;;;;;;;4.78;100.00;96670.19;4833928;29;20026;-84
2023/01/15 00:16:12;;;;;;;7.65;2.17;;;;;;;4.67;100.00;96666.50;4834624;29;20389;-83
2023/01/15 00:18:37;;;;;;;13.10;2.20;;;;;;;4.56;100.00;96662.81;4837450;29;20066;-83
2023/01/15 00:21:12;;;;;;;9.68;2.17;;;;;;;4.70;100.00;96654.91;4830535;29;20037;-84
2023/01/15 00:29:14;;;;;;;7.05;2.60;;;;;;;4.81;100.00;96645.59;4836194;29;20033;-82
2023/01/15 00:31:40;;;;;;;4.55;1.95;;;;;;;4.42;100.00;96661.34;4835395;29;20038;-83
2023/01/15 00:34:06;;;;;;;9.45;2.53;;;;;;;4.55;100.00;96626.66;4831569;29;20046;-85
2023/01/15 00:36:33;;;;;;;6.82;1.95;;;;;;;4.49;100.00;96659.50;4835151;29;20041;-83
2023/01/15 00:38:59;;;;;;;8.70;1.73;;;;;;;4.70;100.00;96614.09;4836102;29;20038;-83
2023/01/15 00:41:25;;;;;;;10.68;2.47;;;;;;;4.54;100.00;96610.28;4836424;29;20496;-84
2023/01/15 00:43:51;;;;;;;10.38;2.60;;;;;;;4.58;100.00;96627.00;4845956;29;20065;-83
2023/01/15 00:46:18;;;;;;;4.28;1.88;;;;;;;4.65;100.00;96637.34;4830913;29;20391;-84
2023/01/15 00:48:44;;;;;;;7.97;2.17;;;;;;;4.53;100.00;96621.69;4835176;29;20042;-84
2023/01/15 00:51:10;;;;;;;7.38;2.03;;;;;;;4.56;100.00;96617.88;4835851;29;20045;-84
2023/01/15 00:53:36;;;;;;;4.70;1.50;;;;;;;4.27;100.00;96666.84;4836222;29;20034;-84
2023/01/15 00:56:01;;;;;;;6.40;1.95;;;;;;;4.43;100.00;96616.97;4848701;29;20053;-84
2023/01/15 00:58:27;;;;;;;5.65;1.90;;;;;;;4.70;100.00;96629.69;4853948;29;20064;-84
2023/01/15 01:00:59;;;;;;;8.52;1.73;;;;;;;4.54;100.00;96614.69;4853750;29;20026;-84
2023/01/15 01:03:26;;;;;;;6.28;1.48;;;;;;;4.40;100.00;96609.63;4834705;29;20061;-85
2023/01/15 01:05:52;;;;;;;6.78;1.85;;;;;;;4.43;100.00;96611.78;4851807;29;20030;-84
2023/01/15 01:08:18;;;;;;;4.45;1.30;;;;;;;4.38;100.00;96616.03;4851649;29;20384;-85
2023/01/15 01:10:46;;;;;;;12.48;1.80;;;;;;;4.35;100.00;96629.44;4848319;29;20033;-85
2023/01/15 01:13:11;;;;;;;5.20;1.52;;;;;;;4.47;100.00;96632.94;4836634;29;20044;-84
2023/01/15 01:15:37;;;;;;;6.55;1.90;;;;;;;4.45;100.00;96660.13;4853724;29;20120;-85
2023/01/15 01:18:04;;;;;;;5.32;1.42;;;;;;;4.46;100.00;96633.13;4853014;29;20038;-85
2023/01/15 01:20:31;;;;;;;9.25;2.88;;;;;;;4.54;100.00;96654.44;4850780;29;20037;-85
2023/01/15 01:22:57;;;;;;;10.60;2.05;;;;;;;4.29;100.00;96615.50;4853183;29;20034;-83
2023/01/15 01:25:23;;;;;;;9.30;1.40;;;;;;;4.26;100.00;96621.94;4854745;29;20029;-84
2023/01/15 01:27:49;;;;;;;8.35;2.20;;;;;;;4.29;100.00;96615.50;4849019;29;20041;-84
2023/01/15 01:30:15;;;;;;;14.98;2.33;;;;;;;4.46;100.00;96617.56;4850167;29;20037;-84
2023/01/15 01:32:43;;;;;;;9.02;2.05;;;;;;;4.50;100.00;96626.50;4851541;29;20041;-82
2023/01/15 01:35:09;;;;;;;5.90;1.27;;;;;;;4.37;100.00;96611.84;4845880;29;20034;-85
2023/01/15 01:37:36;;;;;;;8.60;1.65;;;;;;;4.41;100.00;96613.81;4834713;29;20047;-84
2023/01/15 01:40:03;;;;;;;9.43;1.80;;;;;;;4.34;100.00;96613.06;4851810;29;20081;-84
2023/01/15 01:42:29;;;;;;;6.50;1.75;;;;;;;4.40;100.00;96633.00;4852554;29;20078;-83
2023/01/15 01:45:02;;;;;;;7.07;1.60;;;;;;;4.12;100.00;96610.06;4853481;29;20032;-84
2023/01/15 01:47:30;;;;;;;7.47;1.83;;;;;;;4.52;100.00;96601.09;4835824;29;20037;-82
2023/01/15 01:50:05;;;;;;;10.93;1.40;;;;;;;4.35;100.00;96604.28;4854382;29;20508;-83
2023/01/15 01:52:55;;;;;;;8.95;1.80;;;;;;;4.45;100.00;96596.00;4851314;29;20036;-84
2023/01/15 01:55:22;;;;;;;10.32;2.13;;;;;;;4.46;100.00;96609.75;4852688;29;20113;-84
2023/01/15 01:57:52;;;;;;;8.50;1.58;;;;;;;4.26;100.00;96627.13;4850407;29;20030;-85
2023/01/15 02:00:19;;;;;;;7.25;1.92;;;;;;;4.50;100.00;96608.31;4850038;29;20059;-84
2023/01/15 02:02:47;;;;;;;5.05;1.40;;;;;;;4.27;100.00;96597.56;4847041;29;20116;-85
2023/01/15 02:05:26;;;;;;;9.20;1.98;;;;;;;4.37;100.00;96578.88;4852029;29;20113;-83
2023/01/15 02:07:53;;;;;;;6.93;1.75;;;;;;;4.22;100.00;96614.78;4857267;29;20033;-83
2023/01/15 02:10:18;;;;;;;13.38;1.73;;;;;;;4.19;100.00;96589.25;4853565;29;20040;-83
2023/01/15 02:12:53;;;;;;;3.58;1.30;;;;;;;4.25;100.00;96588.38;4846917;29;20481;-84
2023/01/15 02:15:28;;;;;;;6.63;1.75;;;;;;;4.32;100.00;96562.34;4847994;29;20044;-86
2023/01/15 02:18:41;;;;;;;5.38;1.65;;;;;;;4.46;100.00;96587.19;4852798;29;20038;-86
2023/01/15 02:21:26;;;;;;;9.48;2.85;;;;;;;4.26;100.00;96551.00;4823281;29;20089;-84
2023/01/15 02:24:46;;;;;;;8.82;1.70;;;;;;;4.49;100.00;96573.75;4843809;29;20040;-83
2023/01/15 02:27:22;;;;;;;6.85;2.38;;;;;;;4.50;100.00;96575.34;4793953;29;20508;-84
2023/01/15 02:30:10;;;;;;;7.30;1.50;;;;;;;4.37;100.00;96571.09;4848007;29;20413;-83
2023/01/15 02:32:51;;;;;;;12.88;2.65;;;;;;;4.33;100.00;96569.13;4832152;29;20046;-84
2023/01/15 02:35:29;;;;;;;8.93;1.98;;;;;;;4.29;100.00;96579.16;4852465;29;20544;-84
2023/01/15 02:37:59;;;;;;;9.88;1.73;;;;;;;4.18;100.00;96572.09;4852419;29;20037;-85
2023/01/15 02:40:27;;;;;;;9.40;1.73;;;;;;;4.28;100.00;96590.53;4830542;29;20050;-84
2023/01/15 02:42:54;;;;;;;7.05;1.40;;;;;;;4.22;100.00;96588.81;4849677;29;20034;-85
2023/01/15 02:45:31;;;;;;;7.43;1.70;;;;;;;4.04;100.00;96585.16;4848944;29;20057;-84
2023/01/15 02:48:04;;;;;;;5.15;1.05;;;;;;;4.01;100.00;96580.41;4853874;29;20050;-84
2023/01/15 02:50:38;;;;;;;6.95;1.52;;;;;;;4.45;100.00;96601.19;4848378;29;20125;-86
2023/01/15 02:53:08;;;;;;;8.38;1.70;;;;;;;4.37;100.00;96581.47;4832207;29;20117;-85
2023/01/15 02:55:40;;;;;;;7.43;1.40;;;;;;;4.27;100.00;96579.38;4846604;29;20053;-85
2023/01/15 02:58:12;;;;;;;14.48;1.67;;;;;;;4.35;100.00;96593.88;4850352;29;20443;-84
2023/01/15 03:00:42;;;;;;;11.07;1.60;;;;;;;4.20;100.00;96578.63;4849381;29;20026;-85
2023/01/15 03:03:20;;;;;;;3.00;1.17;;;;;;;4.27;100.00;96588.97;4850468;29;20532;-85
2023/01/15 03:06:21;;;;;;;6.95;2.20;;;;;;;4.38;100.00;96569.28;4853753;29;20034;-85
2023/01/15 03:08:46;;;;;;;6.07;1.65;;;;;;;4.41;100.00;96566.25;4843218;29;20060;-84
2023/01/15 03:11:15;;;;;;;5.07;1.27;;;;;;;4.21;100.00;96579.44;4853764;29;20034;-84
2023/01/15 03:13:50;;;;;;;4.80;2.13;;;;;;;4.28;100.00;96554.19;4847063;29;20034;-84
2023/01/15 03:16:33;;;;;;;10.50;1.80;;;;;;;4.70;100.00;96562.13;4855286;29;20045;-84
2023/01/15 03:19:33;;;;;;;9.80;1.97;;;;;;;4.54;100.00;96575.72;4853794;29;20453;-83
2023/01/15 03:22:24;;;;;;;4.93;1.80;;;;;;;4.51;100.00;96566.53;4854922;29;20034;-84
2023/01/15 03:24:54;;;;;;;9.10;2.05;;;;;;;4.76;100.00;96562.28;4852525;29;20519;-85
2023/01/15 03:27:21;;;;;;;5.15;1.80;;;;;;;4.75;100.00;96571.09;4851047;29;20065;-85
2023/01/15 03:29:52;;;;;;;6.05;1.45;;;;;;;4.57;100.00;96570.88;4850852;29;20057;-83
2023/01/15 03:32:19;;;;;;;6.63;1.63;;;;;;;4.68;100.00;96545.19;4851863;29;20129;-85
2023/01/15 03:34:53;;;;;;;5.25;1.73;;;;;;;4.76;100.00;96557.09;4854258;29;21838;-86
2023/01/15 03:37:23;;;;;;;10.77;1.98;;;;;;;4.74;100.00;96559.09;4855861;29;20132;-85
2023/01/15 03:39:49;;;;;;;6.72;1.40;;;;;;;4.70;100.00;96528.34;4848942;29;20029;-84
2023/01/15 03:42:34;;;;;;;8.48;1.50;;;;;;;4.85;100.00;96537.56;4853249;29;20034;-85
2023/01/15 03:45:11;;;;;;;4.63;1.67;;;;;;;4.46;100.00;96537.03;4852276;29;20044;-85
2023/01/15 03:48:17;;;;;;;4.45;1.20;;;;;;;4.82;100.00;96530.22;4852869;29;20070;-84
2023/01/15 03:50:53;;;;;;;12.55;2.45;;;;;;;4.67;100.00;96539.19;4852291;29;20493;-84
2023/01/15 03:53:19;;;;;;;6.07;1.50;;;;;;;4.56;100.00;96532.13;4853833;29;20045;-85
2023/01/15 03:55:58;;;;;;;5.07;1.63;;;;;;;4.66;100.00;96539.41;4836334;29;20068;-84
2023/01/15 03:58:41;;;;;;;6.10;1.60;;;;;;;4.75;100.00;96526.91;4853055;29;20037;-84
2023/01/15 04:01:10;;;;;;;8.80;1.90;;;;;;;4.38;100.00;96520.72;4852820;29;20435;-85
2023/01/15 04:03:38;;;;;;;9.57;2.28;;;;;;;4.68;100.00;96539.97;4855524;29;20037;-84
2023/01/15 04:06:05;;;;;;;6.03;1.50;;;;;;;4.59;100.00;96534.28;4855047;29;20059;-84
2023/01/15 04:08:39;;;;;;;8.95;1.50;;;;;;;4.82;100.00;96535.41;4854081;29;20184;-85
2023/01/15 04:11:05;;;;;;;4.68;1.30;;;;;;;4.86;100.00;96520.97;4836530;29;20508;-85
2023/01/15 04:13:30;;;;;;;10.85;1.77;;;;;;;4.86;100.00;96500.16;4851051;29;20438;-83
2023/01/15 04:15:57;;;;;;;7.38;1.30;;;;;;;4.65;100.00;96507.41;4852330;29;20037;-83
2023/01/15 04:18:22;;;;;;;8.55;1.30;;;;;;;4.83;100.00;96511.00;4837722;29;20034;-85
2023/01/15 04:20:48;;;;;;;4.97;1.58;;;;;;;5.26;100.00;96517.03;4857153;29;20060;-85
2023/01/15 04:23:14;;;;;;;6.55;1.55;;;;;;;5.06;100.00;96510.31;4854336;29;20465;-85
2023/01/15 04:25:40;;;;;;;5.10;1.20;;;;;;;5.24;100.00;96522.44;4851992;29;20563;-84
2023/01/15 04:28:06;;;;;;;14.32;1.77;;;;;;;5.03;100.00;96517.75;4841148;29;20041;-85
2023/01/15 04:30:33;;;;;;;7.43;1.40;;;;;;;5.07;100.00;96490.28;4854912;29;20144;-84
2023/01/15 04:32:59;;;;;;;5.10;1.25;;;;;;;5.19;100.00;96498.13;4857300;29;20034;-85
2023/01/15 04:35:24;;;;;;;4.22;1.20;;;;;;;5.10;100.00;96490.63;4855324;29;20090;-85
2023/01/15 04:37:58;;;;;;;8.18;1.60;;;;;;;5.51;100.00;96488.25;4837883;29;20033;-84
2023/01/15 04:45:58;;;;;;;6.93;1.27;;;;;;;5.37;100.00;96466.03;4851622;29;20118;-86
2023/01/15 04:48:24;;;;;;;8.93;1.13;;;;;;;5.49;100.00;96481.66;4857694;29;20395;-86
2023/01/15 04:50:50;;;;;;;6.35;1.20;;;;;;;5.29;100.00;96454.16;4853833;29;20516;-86
2023/01/15 04:53:15;;;;;;;3.75;1.20;;;;;;;5.41;100.00;96448.97;4849390;29;20046;-85
2023/01/15 04:55:41;;;;;;;7.10;1.27;;;;;;;5.24;100.00;96438.44;4846592;29;20054;-84
2023/01/15 04:58:07;;;;;;;4.35;1.08;;;;;;;5.15;100.00;96451.75;4835409;29;20073;-83
2023/01/15 05:00:32;;;;;;;2.00;1.10;;;;;;;5.33;100.00;96472.72;4832389;29;20041;-85
2023/01/15 05:02:58;;;;;;;3.28;1.20;;;;;;;5.07;100.00;96465.09;4836581;29;20041;-83
2023/01/15 05:05:24;;;;;;;4.57;1.13;;;;;;;5.01;100.00;96455.56;4833940;29;20034;-84
2023/01/15 05:07:49;;;;;;;6.97;1.40;;;;;;;4.96;100.00;96438.03;4835283;29;20034;-84
2023/01/15 05:10:15;;;;;;;7.47;1.30;;;;;;;5.02;100.00;96436.38;4826917;29;20035;-84
2023/01/15 05:12:40;;;;;;;3.03;1.20;;;;;;;5.14;100.00;96449.41;4834061;29;20038;-84
2023/01/15 05:15:06;;;;;;;6.50;1.10;;;;;;;5.10;100.00;96443.03;4830595;29;20053;-83
2023/01/15 05:17:33;;;;;;;7.03;1.30;;;;;;;5.11;100.00;96434.22;4835601;29;20409;-84
2023/01/15 05:19:58;;;;;;;5.55;1.20;;;;;;;5.35;100.00;96444.66;4847571;29;20029;-84
2023/01/15 05:22:24;;;;;;;10.93;1.58;;;;;;;5.10;100.00;96435.22;4848298;29;20125;-85
2023/01/15 05:24:50;;;;;;;6.20;1.10;;;;;;;5.40;100.00;96444.78;4831376;29;20030;-84
2023/01/15 05:27:16;;;;;;;3.80;1.05;;;;;;;5.28;100.00;96455.94;4834502;29;20033;-84
2023/01/15 05:29:41;;;;;;;6.57;1.15;;;;;;;5.39;100.00;96461.41;4848953;29;20042;-85
2023/01/15 05:32:08;;;;;;;5.13;1.23;;;;;;;5.57;100.00;96440.50;4835095;29;20394;-85
2023/01/15 05:34:33;;;;;;;4.13;1.35;;;;;;;5.67;100.00;96488.56;4830382;29;20038;-85
2023/01/15 05:36:59;;;;;;;2.60;1.05;;;;;;;5.72;100.00;96473.09;4833961;29;20037;-85
2023/01/15 05:39:24;;;;;;;4.85;1.60;;;;;;;6.19;100.00;96484.50;4819876;29;20041;-85
2023/01/15 05:41:50;;;;;;;3.20;1.17;;;;;;;5.82;100.00;96454.28;4833496;29;20053;-85
2023/01/15 05:44:21;;;;;;;5.68;2.17;;;;;;;5.84;100.00;96473.84;4831676;29;20390;-86
2023/01/15 05:46:48;;;;;;;3.95;1.30;;;;;;;6.05;100.00;96483.97;4830137;29;20409;-85
2023/01/15 05:49:20;;;;;;;3.75;0.90;;;;;;;5.85;100.00;96457.22;4831501;29;20504;-85
2023/01/15 05:51:46;;;;;;;5.15;1.08;;;;;;;5.76;100.00;96461.19;4835539;29;20106;-84
2023/01/15 05:54:15;;;;;;;3.88;1.10;;;;;;;6.00;100.00;96474.19;4833611;29;20553;-85
2023/01/15 05:56:41;;;;;;;1.58;0.90;;;;;;;5.93;100.00;96487.31;4852036;29;20497;-85
2023/01/15 05:59:07;;;;;;;4.25;1.15;;;;;;;6.06;100.00;96508.97;4850831;29;20067;-84
2023/01/15 06:01:34;;;;;;;6.20;1.52;;;;;;;5.70;100.00;96488.13;4853454;29;20385;-84
2023/01/15 06:04:01;;;;;;;10.88;1.35;;;;;;;5.96;100.00;96470.47;4854573;29;20057;-85
2023/01/15 06:06:27;;;;;;;4.95;1.23;;;;;;;5.67;100.00;96472.94;4858153;29;20029;-85
2023/01/15 06:08:54;;;;;;;6.15;1.67;;;;;;;5.82;100.00;96472.53;4851470;29;20036;-83
2023/01/15 06:11:20;;;;;;;8.35;1.55;;;;;;;5.68;100.00;96470.13;4850695;29;20493;-84
2023/01/15 06:13:46;;;;;;;4.75;1.10;;;;;;;5.29;100.00;96493.16;4851612;29;20052;-84
2023/01/15 06:16:12;;;;;;;6.43;1.00;;;;;;;5.05;100.00;96476.72;4854341;29;20041;-86
2023/01/15 06:18:39;;;;;;;4.30;1.05;;;;;;;5.02;100.00;96493.56;4848176;29;20038;-84
2023/01/15 06:21:06;;;;;;;6.15;1.00;;;;;;;5.11;100.00;96497.41;4854642;29;20022;-86
2023/01/15 06:23:35;;;;;;;4.28;1.17;;;;;;;5.06;100.00;96484.31;4852372;29;20112;-85
2023/01/15 06:26:07;;;;;;;8.02;1.70;;;;;;;5.08;100.00;96502.25;4852102;29;20034;-85
2023/01/15 06:28:33;;;;;;;10.18;1.50;;;;;;;4.80;100.00;96485.47;4855187;29;20057;-85
2023/01/15 06:30:59;;;;;;;5.55;1.25;;;;;;;4.91;100.00;96487.28;4854011;29;20030;-85
2023/01/15 06:33:25;;;;;;;5.20;1.20;;;;;;;4.79;100.00;96564.44;4837807;29;20082;-86
2023/01/15 06:35:51;;;;;;;14.15;3.00;;;;;;;4.94;100.00;96501.66;4834929;29;20394;-87
2023/01/15 06:38:17;;;;;;;3.10;1.30;;;;;;;4.99;100.00;96515.59;4855329;29;20488;-87
2023/01/15 06:40:43;;;;;;;9.90;1.60;;;;;;;4.71;100.00;96503.16;4841560;29;20057;-86
2023/01/15 06:48:38;;;;;;;5.13;1.50;;;;;;;4.77;100.00;96533.47;4837919;29;20026;-86
2023/01/15 06:51:04;;;;;;;6.97;1.92;;;;;;;4.80;100.00;96543.41;4858321;29;20041;-86
2023/01/15 06:53:30;;;;;;;4.20;1.42;;;;;;;4.94;100.00;96533.66;4857150;29;20042;-86
2023/01/15 06:55:55;;;;;;;3.28;1.38;;;;;;;4.71;100.00;96548.13;4852743;29;20506;-86
2023/01/15 06:58:21;;;;;;;3.40;1.60;;;;;;;4.85;100.00;96563.56;4839779;29;20041;-84
2023/01/15 07:00:53;;;;;;;9.32;1.60;;;;;;;4.82;100.00;96551.81;4858493;29;20034;-85
2023/01/15 07:03:19;;;;;;;12.60;1.90;;;;;;;5.03;100.00;96582.75;4855449;29;20393;-83
2023/01/15 07:05:45;;;;;;;4.63;1.70;;;;;;;4.80;100.00;96576.41;4838583;29;20033;-87
2023/01/15 07:08:10;;;;;;;8.90;1.63;;;;;;;4.91;100.00;96585.28;4856864;29;20565;-82
2023/01/15 07:10:36;;;;;;;3.38;1.35;;;;;;;4.78;100.00;96581.03;4838617;29;20033;-83
2023/01/15 07:13:02;;;;;;;6.97;1.90;;;;;;;4.98;100.00;96591.19;4860571;29;20034;-83
2023/01/15 07:15:27;;;;;;;10.98;2.55;;;;;;;4.86;100.00;96585.94;4855552;29;20063;-83
2023/01/15 07:17:54;;;;;;;9.05;1.80;;;;;;;4.97;100.00;96582.63;4833787;29;20040;-85
2023/01/15 07:20:20;;;;;;;6.40;2.13;;;;;;;4.68;100.00;96591.94;4856191;29;20075;-85
2023/01/15 07:22:50;;;;;;;4.75;2.25;;;;;;;4.67;100.00;96611.94;4857465;29;20033;-83
2023/01/15 07:25:16;;;;;;;12.90;3.78;;;;;;;4.82;100.00;96577.00;4856116;29;20295;-83
2023/01/15 07:27:46;;;;;;;14.07;3.80;;;;;;;4.58;100.00;96589.84;4839340;29;20053;-85
2023/01/15 07:30:12;;;;;;;7.97;3.20;;;;;;;4.61;100.00;96570.44;4841710;29;20510;-85
2023/01/15 07:32:38;;;;;;;13.27;4.10;;;;;;;4.74;100.00;96567.69;4839940;29;20063;-82
2023/01/15 07:35:04;;;;;;;6.60;3.88;;;;;;;4.79;100.00;96570.41;4854029;29;20052;-83
2023/01/15 07:37:30;;;;;;;7.00;3.20;;;;;;;4.52;100.00;96578.53;4851037;29;20087;-81
2023/01/15 07:39:56;;;;;;;9.73;3.95;;;;;;;4.50;100.00;96590.13;4858562;29;20033;-82
2023/01/15 07:50:38;;;;;;;9.60;4.65;;;;;;;4.55;100.00;96592.91;4853712;29;20041;-81
2023/01/15 07:53:03;;;;;;;10.38;4.60;;;;;;;4.41;100.00;96603.41;4851454;29;20040;-81
2023/01/15 07:55:29;;;;;;;12.15;4.85;;;;;;;4.75;100.00;96600.47;4850905;29;20389;-82
2023/01/15 07:57:55;;;;;;;9.15;4.85;;;;;;;4.78;100.00;96607.03;4840586;29;20553;-82
2023/01/15 08:00:23;;;;;;;8.93;4.72;;;;;;;4.76;100.00;96609.84;4849264;29;20063;-82
2023/01/15 08:02:49;;;;;;;13.18;4.95;;;;;;;4.70;100.00;96608.91;4855982;29;20037;-82
2023/01/15 08:05:16;;;;;;;10.50;4.90;;;;;;;4.97;100.00;96626.81;4839813;29;20083;-81
2023/01/15 08:07:42;;;;;;;15.70;5.85;;;;;;;4.82;100.00;96649.78;4831502;29;20393;-82
2023/01/15 08:10:10;;;;;;;9.10;5.00;;;;;;;4.82;100.00;96634.19;4851647;29;20056;-82
2023/01/15 08:15:20;;;;;;;6.75;2.83;;;;;;;4.95;100.00;96634.03;4850157;29;20086;-81
2023/01/15 08:17:49;;;;;;;7.55;2.00;;;;;;;4.89;100.00;96655.69;4836885;29;20038;-82
2023/01/15 08:20:24;;;;;;;4.70;2.17;;;;;;;4.88;100.00;96663.72;4833638;29;20519;-81
2023/01/15 08:22:49;;;;;;;7.43;2.40;;;;;;;5.04;100.00;96662.31;4853939;29;20433;-81
2023/01/15 08:25:18;;;;;;;4.68;1.60;;;;;;;5.11;100.00;96670.84;4836492;29;20029;-83
2023/01/15 08:27:45;;;;;;;3.97;1.52;;;;;;;4.86;100.00;96648.31;4837776;29;20048;-83
2023/01/15 08:30:14;;;;;;;3.70;1.35;;;;;;;4.88;100.00;96648.91;4856486;29;20078;-85
2023/01/15 08:32:39;;;;;;;4.78;1.40;;;;;;;4.71;100.00;96646.88;4866665;29;20129;-84
2023/01/15 08:35:06;;;;;;;5.28;1.23;;;;;;;4.72;100.00;96661.47;4865723;29;20488;-84
2023/01/15 08:37:31;;;;;;;6.93;1.73;;;;;;;4.86;100.00;96664.72;4863832;29;20049;-84
2023/01/15 08:39:58;;;;;;;2.60;1.30;;;;;;;4.99;100.00;96655.97;4862855;29;20033;-81
2023/01/15 08:42:24;;;;;;;2.08;1.40;;;;;;;5.00;100.00;96667.97;4838768;29;20522;-83
2023/01/15 08:44:50;;;;;;;2.88;1.15;;;;;;;5.06;100.00;96673.31;4865175;29;20029;-82
2023/01/15 08:47:16;;;;;;;2.22;1.27;;;;;;;5.14;100.00;96678.22;4848686;29;20037;-84
2023/01/15 08:49:43;;;;;;;1.98;0.98;;;;;;;4.98;100.00;96690.00;4867545;29;20041;-83
2023/01/15 08:52:09;;;;;;;3.13;1.00;;;;;;;4.87;100.00;96707.09;4866781;29;20033;-82
2023/01/15 08:54:34;;;;;;;1.70;1.02;;;;;;;4.85;100.00;96690.91;4867003;29;20037;-83
2023/01/15 08:57:00;;;;;;;2.45;0.95;;;;;;;5.07;100.00;96708.69;4864608;29;20053;-82
2023/01/15 08:59:26;;;;;;;1.45;0.90;;;;;;;5.07;100.00;96732.09;4866587;29;20037;-84
2023/01/15 09:01:52;;;;;;;2.47;1.48;;;;;;;4.91;100.00;96731.63;4865251;29;20057;-83
2023/01/15 09:04:20;;;;;;;2.20;1.08;;;;;;;4.83;100.00;96721.53;4849281;29;20495;-81
2023/01/15 09:06:48;;;;;;;2.55;1.00;;;;;;;5.02;100.00;96718.97;4855383;29;20116;-81
2023/01/15 09:09:14;;;;;;;1.38;1.05;;;;;;;5.02;100.00;96735.38;4857438;29;20110;-82
2023/01/15 09:11:40;;;;;;;1.63;0.90;;;;;;;5.06;100.00;96715.72;4848487;29;20057;-80
2023/01/15 09:14:07;;;;;;;1.38;0.60;;;;;;;5.09;100.00;96723.06;4835551;29;20038;-80
2023/01/15 09:16:37;;;;;;;1.98;0.75;;;;;;;5.18;100.00;96734.00;4829639;29;20096;-80
2023/01/15 09:19:05;;;;;;;1.20;0.75;;;;;;;5.10;100.00;96734.25;4846834;29;20037;-80
2023/01/15 09:21:31;;;;;;;1.10;0.90;;;;;;;5.30;100.00;96744.47;4847910;29;20073;-80
2023/01/15 09:23:57;;;;;;;0.73;0.63;;;;;;;5.09;100.00;96748.28;4829515;29;20038;-81
2023/01/15 09:26:32;;;;;;;0.77;0.63;;;;;;;5.42;100.00;96740.13;4849081;29;20060;-80
2023/01/15 09:28:59;;;;;;;3.45;1.10;;;;;;;5.36;100.00;96759.19;4854739;29;20124;-84
2023/01/15 09:31:26;;;;;;;1.75;0.70;;;;;;;5.52;100.00;96757.03;4866530;29;20033;-84
2023/01/15 09:33:52;;;;;;;0.50;0.43;;;;;;;5.46;100.00;96778.72;4858685;29;20030;-84
2023/01/15 09:36:23;;;;;;;2.15;0.60;;;;;;;5.54;100.00;96776.63;4845122;29;20042;-82
2023/01/15 09:38:50;;;;;;;0.88;0.85;;;;;;;5.45;100.00;96793.53;4846179;29;20094;-82
2023/01/15 09:44:04;;;;;;;1.25;1.00;;;;;;;5.72;100.00;96808.84;4845406;29;20034;-80
2023/01/15 09:46:40;;;;;;;1.77;1.10;;;;;;;5.74;100.00;96814.63;4840608;29;20066;-85
2023/01/15 09:49:11;;;;;;;1.48;1.08;;;;;;;5.89;100.00;96823.88;4845141;29;20050;-81
2023/01/15 09:52:08;;;;;;;1.60;1.10;;;;;;;5.80;100.00;96821.56;4846946;29;20048;-80
2023/01/15 09:54:37;;;;;;;1.00;0.90;;;;;;;5.85;100.00;96829.50;4833763;29;20042;-80
2023/01/15 09:57:04;;;;;;;1.10;0.65;;;;;;;5.79;100.00;96819.97;4849168;29;20038;-81
2023/01/15 09:59:37;;;;;;;1.35;0.90;;;;;;;5.99;100.00;96842.38;4849344;29;20034;-81
2023/01/15 10:02:16;;;;;;;2.10;0.80;;;;;;;5.96;100.00;96840.22;4847816;29;20493;-80
2023/01/15 10:04:48;;;;;;;0.47;0.45;;;;;;;5.85;100.00;96839.94;4849942;29;20068;-82
2023/01/15 10:07:20;;;;;;;0.40;0.40;;;;;;;5.89;100.00;96850.72;4849236;29;20121;-81
2023/01/15 10:09:54;;;;;;;0.57;0.57;;;;;;;6.03;100.00;96864.38;4846475;29;20033;-81
2023/01/15 10:12:34;;;;;;;1.98;0.80;;;;;;;6.17;100.00;96867.63;4850513;29;20101;-81
2023/01/15 10:15:12;;;;;;;1.70;1.20;;;;;;;6.10;100.00;96841.69;4852446;29;20041;-79
2023/01/15 10:17:44;;;;;;;2.28;1.65;;;;;;;5.97;100.00;96854.81;4828090;29;20508;-80
2023/01/15 10:20:34;;;;;;;1.50;1.30;;;;;;;5.83;100.00;96854.97;4847972;29;20037;-82
2023/01/15 10:23:12;;;;;;;4.38;1.70;;;;;;;6.02;100.00;96864.63;4849968;29;20072;-82
2023/01/15 10:25:50;;;;;;;2.45;1.80;;;;;;;6.16;100.00;96875.66;4833089;29;20100;-82
2023/01/15 10:28:29;;;;;;;5.57;2.13;;;;;;;6.33;100.00;96881.88;4852459;29;20041;-81
2023/01/15 10:31:01;;;;;;;5.43;2.08;;;;;;;6.36;100.00;96884.03;4846809;29;20083;-82
2023/01/15 10:33:46;;;;;;;5.82;2.65;;;;;;;6.84;100.00;96892.00;4840025;29;20117;-82
2023/01/15 10:36:39;;;;;;;7.50;2.80;;;;;;;6.72;100.00;96912.81;4846223;29;20030;-81
2023/01/15 10:39:48;;;;;;;6.50;2.80;;;;;;;6.94;100.00;96907.09;4847127;29;20054;-82
2023/01/15 10:42:19;;;;;;;6.18;3.65;;;;;;;7.45;100.00;96911.94;4821834;29;20052;-81
2023/01/15 10:45:16;;;;;;;4.40;3.45;;;;;;;7.75;100.00;96903.97;4847501;29;20052;-81
2023/01/15 10:47:44;;;;;;;3.95;2.80;;;;;;;7.34;100.00;96905.69;4844981;29;20045;-82
2023/01/15 10:50:19;;;;;;;5.35;3.38;;;;;;;7.58;100.00;96916.94;4848228;29;20042;-82
2023/01/15 10:53:18;;;;;;;6.07;3.40;;;;;;;7.62;100.00;96922.47;4848034;29;20026;-81
2023/01/15 10:55:46;;;;;;;7.40;4.85;;;;;;;7.95;100.00;96931.53;4849065;29;20069;-81
2023/01/15 10:58:40;;;;;;;16.98;7.47;;;;;;;8.27;100.00;96928.53;4830213;29;20044;-82
2023/01/15 11:01:13;;;;;;;12.05;6.97;;;;;;;8.48;100.00;96926.31;4851273;29;20030;-82
2023/01/15 11:03:43;;;;;;;10.00;5.68;;;;;;;7.93;100.00;96928.38;4847462;29;20649;-81
2023/01/15 11:06:22;;;;;;;9.90;6.07;;;;;;;8.18;100.00;96945.59;4837070;29;20109;-82
2023/01/15 11:08:54;;;;;;;14.32;7.03;;;;;;;8.02;100.00;96937.44;4833412;29;20045;-81
2023/01/15 11:19:41;;;;;;;11.48;7.18;;;;;;;8.60;100.00;96942.75;4834779;29;20479;-82
2023/01/15 11:22:08;;;;;;;9.63;5.15;;;;;;;8.18;100.00;96946.41;4829920;29;20517;-82
2023/01/15 11:24:37;;;;;;;9.20;4.18;;;;;;;8.07;100.00;96927.09;4845503;29;20030;-82
2023/01/15 11:27:05;;;;;;;5.00;3.60;;;;;;;8.61;100.00;96939.13;4837737;29;20034;-82
2023/01/15 11:29:35;;;;;;;7.30;3.50;;;;;;;8.35;100.00;96928.16;4838991;29;20038;-82
2023/01/15 11:32:01;;;;;;;5.25;3.30;;;;;;;7.71;100.00;96936.78;4830063;29;20046;-82
2023/01/15 11:34:27;;;;;;;4.40;3.20;;;;;;;7.94;100.00;96935.19;4834875;29;20392;-82
2023/01/15 11:37:03;;;;;;;4.32;3.05;;;;;;;7.82;100.00;96928.16;4835103;29;20116;-82
2023/01/15 11:39:30;;;;;;;5.78;3.80;;;;;;;7.69;100.00;96937.00;4837839;29;20044;-82
2023/01/15 11:53:17;;;;;;;7.07;3.55;;;;;;;8.81;100.00;96932.66;4834669;29;20046;-81
2023/01/15 11:55:59;;;;;;;8.57;3.92;;;;;;;8.73;100.00;96925.22;4842176;29;20041;-82
2023/01/15 11:58:27;;;;;;;7.15;4.63;;;;;;;8.18;100.00;96937.75;4854622;29;20034;-81
2023/01/15 12:01:02;;;;;;;11.02;5.93;;;;;;;7.91;100.00;96930.41;4853292;29;20473;-82
2023/01/15 12:03:33;;;;;;;11.85;5.38;;;;;;;8.21;100.00;96930.25;4849202;29;20038;-83
2023/01/15 12:06:04;;;;;;;8.38;5.72;;;;;;;7.84;100.00;96941.75;4834769;29;20038;-81
2023/01/15 12:08:43;;;;;;;11.13;5.35;;;;;;;7.93;100.00;96950.03;4853476;29;20108;-81
2023/01/15 12:11:26;;;;;;;10.75;5.22;;;;;;;7.77;100.00;96924.66;4856769;29;20069;-82
2023/01/15 12:13:55;;;;;;;;;;;;;;;7.61;100.00;96928.72;4853621;29;20824;-81
2023/01/15 12:16:39;;;;;;;11.23;7.03;;;;;;;7.66;100.00;96924.41;4847925;29;19987;-81
2023/01/15 12:19:13;;;;;;;17.40;8.25;;;;;;;7.58;100.00;96925.53;4853484;29;20077;-81
2023/01/15 12:22:11;;;;;;;18.25;8.70;;;;;;;7.42;100.00;96921.81;4855416;29;20029;-82
2023/01/15 12:25:12;;;;;;;20.50;9.27;;;;;;;7.26;100.00;96919.88;4854685;29;20036;-82
2023/01/15 12:28:02;;;;;;;28.65;11.30;;;;;;;7.18;100.00;96925.41;4836728;29;20363;-81
2023/01/15 12:30:37;;;;;;;21.45;8.68;;;;;;;7.13;100.00;96921.66;4849345;29;20038;-81
2023/01/15 12:33:25;;;;;;;19.05;9.10;;;;;;;7.45;100.00;96944.03;4838352;29;20056;-81
2023/01/15 12:36:06;;;;;;;26.33;11.23;;;;;;;7.65;100.00;96943.72;4852277;29;20085;-81
2023/01/15 12:38:54;;;;;;;19.75;10.52;;;;;;;7.62;100.00;96935.53;4849175;29;20038;-81